Asian Infinity — 3EVP3 — position and weather

sailwx.info

Track history (hours):
 
Tides and Currents Weather Stations Pressure Air Temp Water Temp Dewpoint Dewpoint Depression Visibility Wind Speed Wind Dir Waves Ship Positions

Asian Infinity

Last reported at 2015-May-29 01:30 UTC. Time now 2015-May-29 02:15 UTC.
Position N 34°42' E 135°15'.

Length 104 m; draft 7 m.

Type: Cargo ship. MMSI: 351868000.

Date/timePositionNaut miles runAvg speedWind from/ knotsBaromVisibWave heightAir tempDewpointWater temp
2015-May-29 01:30N 34°42' E 135°15'0 0.0
2015-May-29 00:30N 34°42' E 135°15'0 0.0
2015-May-28 23:30N 34°42' E 135°15'0 0.0
2015-May-28 22:30N 34°42' E 135°15'0 0.0
2015-May-28 21:30N 34°42' E 135°15'0 0.0
2015-May-28 20:30N 34°42' E 135°15'0 0.0
2015-May-28 19:30N 34°42' E 135°15'0 0.0
2015-May-28 18:30N 34°42' E 135°15'0 0.0
2015-May-28 17:30N 34°42' E 135°15'0 0.0
2015-May-28 16:30N 34°42' E 135°15'0 0.0
2015-May-28 15:30N 34°42' E 135°15'0 0.0
2015-May-28 14:30N 34°42' E 135°15'0 0.0
2015-May-28 13:30N 34°42' E 135°15'0 0.0
2015-May-28 12:30N 34°42' E 135°15'0 0.0
2015-May-28 11:30N 34°42' E 135°15'0 0.0
2015-May-28 10:30N 34°42' E 135°15'0 0.0
2015-May-28 09:30N 34°42' E 135°15'0 0.0
2015-May-28 08:30N 34°42' E 135°15'0 0.0
2015-May-28 07:30N 34°42' E 135°15'0 0.0
2015-May-28 06:24N 34°42' E 135°15'0 0.0
2015-May-28 05:30N 34°42' E 135°15'0 0.0
2015-May-28 04:30N 34°42' E 135°15'0 0.0
2015-May-28 03:30N 34°42' E 135°15'0 0.0
2015-May-28 02:24N 34°42' E 135°15'0 0.0
2015-May-28 01:30N 34°42' E 135°15'0 0.0
2015-May-28 00:30N 34°42' E 135°15'0 0.0
2015-May-27 23:30N 34°42' E 135°15'0 0.0
2015-May-27 22:30N 34°42' E 135°15'0 0.0
2015-May-27 21:30N 34°42' E 135°15'0 0.0
2015-May-27 20:24N 34°42' E 135°15'0 0.0
2015-May-27 19:30N 34°42' E 135°15'0 0.0
2015-May-27 18:30N 34°42' E 135°15'0 0.0
2015-May-27 17:30N 34°42' E 135°15'0 0.0
2015-May-27 16:24N 34°42' E 135°15'0 0.0
2015-May-27 15:30N 34°42' E 135°15'0 0.0
2015-May-27 14:30N 34°42' E 135°15'0 0.0
2015-May-27 13:30N 34°42' E 135°15'0 0.0
2015-May-27 12:30N 34°42' E 135°15'0 0.0
2015-May-27 11:24N 34°42' E 135°15'0 0.0
2015-May-27 10:24N 34°42' E 135°15'0 0.0
2015-May-27 09:30N 34°42' E 135°15'0 0.0
2015-May-27 08:18N 34°42' E 135°15'0 0.0
2015-May-27 07:30N 34°42' E 135°15'0 0.0
2015-May-27 06:30N 34°42' E 135°15'0 0.0
2015-May-27 05:24N 34°42' E 135°15'0 0.0
2015-May-27 04:33N 34°42' E 135°15'0 0.0
2015-May-27 03:33N 34°42' E 135°15'0 0.0
2015-May-27 02:33N 34°42' E 135°15'0 0.0
2015-May-27 01:33N 34°42' E 135°15'0 0.0
2015-May-27 00:33N 34°42' E 135°15'0 0.0
2015-May-26 23:33N 34°42' E 135°15'0 0.1
2015-May-26 22:33N 34°42' E 135°15'5 5.1
2015-May-26 21:33N 34°37' E 135°16'9 8.8
2015-May-26 20:33N 34°29' E 135°11'1010.1
2015-May-26 19:33N 34°22' E 135°02'1110.8
2015-May-26 18:33N 34°12' E 134°59'1111.0
2015-May-26 17:32N 34°00' E 134°60'227 7.8
2015-May-25 12:27N 34°57' E 139°27'17 9.2
2015-May-25 10:33N 35°08' E 139°44'9 8.8
2015-May-25 09:33N 35°16' E 139°45'9 8.9
2015-May-25 08:33N 35°25' E 139°43'3 2.9
2015-May-25 07:32N 35°27' E 139°40'0 0.0
2015-May-25 06:26N 35°27' E 139°40'0 0.0
2015-May-25 05:32N 35°27' E 139°40'0 0.0
2015-May-25 04:32N 35°27' E 139°40'0 0.0
2015-May-25 03:32N 35°27' E 139°40'0 0.0
2015-May-25 02:32N 35°27' E 139°40'0 0.0
2015-May-25 01:32N 35°27' E 139°40'0 0.0
2015-May-25 00:32N 35°27' E 139°40'0 0.0
2015-May-24 23:32N 35°27' E 139°40'0 0.0
2015-May-24 22:32N 35°27' E 139°40'0 0.0
2015-May-24 21:32N 35°27' E 139°40'0 0.0
2015-May-24 20:32N 35°27' E 139°40'0 0.0
2015-May-24 19:32N 35°27' E 139°40'0 0.0
2015-May-24 18:32N 35°27' E 139°40'0 0.0
2015-May-24 17:32N 35°27' E 139°40'0 0.0
2015-May-24 16:32N 35°27' E 139°40'0 0.0
2015-May-24 15:32N 35°27' E 139°40'0 0.0
2015-May-24 14:32N 35°27' E 139°40'0 0.0
2015-May-24 13:32N 35°27' E 139°40'0 0.0
2015-May-24 12:32N 35°27' E 139°40'0 0.0
2015-May-24 11:32N 35°27' E 139°40'0 0.0
2015-May-24 10:32N 35°27' E 139°40'0 0.0
2015-May-24 09:32N 35°27' E 139°40'0 0.0
2015-May-24 08:32N 35°27' E 139°40'0 0.0
2015-May-24 07:32N 35°27' E 139°40'0 0.0
2015-May-24 06:32N 35°27' E 139°40'0 0.0
2015-May-24 05:32N 35°27' E 139°40'0 0.0
2015-May-24 04:32N 35°27' E 139°40'0 0.0
2015-May-24 03:32N 35°27' E 139°40'0 0.0
2015-May-24 02:32N 35°27' E 139°40'0 0.0
2015-May-24 01:32N 35°27' E 139°40'2 1.8
2015-May-24 00:33N 35°26' E 139°42'0 0.4
2015-May-23 23:33N 35°26' E 139°42'0 0.2
2015-May-23 22:33N 35°26' E 139°42'4 3.6
2015-May-23 21:33N 35°23' E 139°43'1010.2
2015-May-23 20:33N 35°13' E 139°47'1010.2
2015-May-23 19:33N 35°03' E 139°45'1010.0
2015-May-23 18:33N 34°53' E 139°47'18 8.9
2015-May-23 16:31N 34°57' E 140°08'41 7.5
2015-May-23 11:04N 35°23' E 140°47'3 5.4
2015-May-23 10:27N 35°26' E 140°49'5 5.3
2015-May-23 09:33N 35°30' E 140°52'6 5.4
2015-May-23 08:30N 35°35' E 140°55'10 7.2
2015-May-23 07:06N 35°45' E 140°57'4 7.7
2015-May-23 06:32N 35°50' E 140°57'14 7.0
2015-May-23 04:33N 35°58' E 140°42'3 2.8
2015-May-23 03:31N 35°55' E 140°40'0 0.0
2015-May-23 02:31N 35°55' E 140°40'0 0.0
2015-May-23 01:31N 35°55' E 140°40'0 0.0
2015-May-23 00:19N 35°55' E 140°40'0 0.0
2015-May-22 23:31N 35°55' E 140°40'0 0.0
2015-May-22 22:31N 35°55' E 140°40'0 0.0
2015-May-22 21:31N 35°55' E 140°40'0 0.0
2015-May-22 20:31N 35°55' E 140°40'0 0.0
2015-May-22 18:19N 35°55' E 140°40'0 0.0
2015-May-22 17:07N 35°55' E 140°40'0 0.0
2015-May-22 16:13N 35°55' E 140°40'0 0.0
2015-May-22 15:31N 35°55' E 140°40'0 0.0
2015-May-22 14:31N 35°55' E 140°40'0 0.0
2015-May-22 13:25N 35°55' E 140°40'0 0.0
2015-May-22 11:31N 35°55' E 140°40'0 0.0
2015-May-22 04:13N 35°55' E 140°40'0 0.0
2015-May-22 03:07N 35°55' E 140°40'0 0.0
2015-May-22 02:31N 35°55' E 140°40'0 0.0
2015-May-22 00:25N 35°55' E 140°40'0 0.0
2015-May-21 23:31N 35°55' E 140°40'0 0.0
2015-May-21 22:31N 35°55' E 140°40'0 0.0
2015-May-21 21:25N 35°55' E 140°40'0 0.0
2015-May-21 20:31N 35°55' E 140°40'0 0.0
2015-May-21 19:31N 35°55' E 140°40'0 0.0
2015-May-21 18:22N 35°55' E 140°40'0 0.0
2015-May-21 17:25N 35°55' E 140°40'0 0.0
2015-May-21 16:25N 35°55' E 140°40'0 0.0
2015-May-21 15:28N 35°55' E 140°40'0 0.0
2015-May-21 14:31N 35°55' E 140°40'0 0.0
2015-May-21 13:07N 35°55' E 140°40'0 0.0
2015-May-21 12:19N 35°55' E 140°40'0 0.0
2015-May-21 11:19N 35°55' E 140°40'0 0.0
2015-May-21 09:13N 35°55' E 140°40'2 0.6
2015-May-21 05:32N 35°56' E 140°42'6 6.0
2015-May-21 04:29N 35°60' E 140°49'0 0.0
2015-May-21 00:23N 35°60' E 140°49'0 0.0
2015-May-20 21:05N 35°60' E 140°49'0 0.0
2015-May-20 20:29N 35°60' E 140°49'0 0.0
2015-May-20 19:32N 35°60' E 140°49'0 0.0
2015-May-20 18:29N 35°60' E 140°49'0 0.1
2015-May-20 17:32N 35°60' E 140°49'0 0.1
2015-May-20 16:29N 35°60' E 140°49'0 0.1
2015-May-20 15:32N 36°00' E 140°49'0 0.0
2015-May-20 14:32N 36°00' E 140°49'0 0.1
2015-May-20 13:17N 35°60' E 140°49'0 0.1
2015-May-20 12:26N 35°60' E 140°49'0 0.1
2015-May-20 11:32N 36°00' E 140°49'0 0.1
2015-May-20 10:32N 35°60' E 140°49'0 0.0
2015-May-20 09:26N 35°60' E 140°49'0 0.0
2015-May-20 08:11N 35°60' E 140°49'0 0.0
2015-May-20 07:05N 35°60' E 140°49'0 0.0
2015-May-20 05:29N 35°60' E 140°49'0 0.0
2015-May-20 04:20N 35°60' E 140°49'0 0.0
2015-May-20 02:23N 35°60' E 140°49'0 0.0
2015-May-20 01:11N 35°60' E 140°49'0 0.1
2015-May-20 00:32N 35°60' E 140°49'0 0.0
2015-May-19 23:32N 35°60' E 140°49'0 0.0
2015-May-19 22:29N 35°60' E 140°49'0 0.1
2015-May-19 20:29N 35°60' E 140°49'0 0.0
2015-May-19 19:23N 35°60' E 140°49'0 0.0
2015-May-19 18:26N 35°60' E 140°49'0 0.0
2015-May-19 17:32N 35°60' E 140°49'0 0.0
2015-May-19 16:23N 35°60' E 140°49'0 0.0
2015-May-19 14:05N 35°60' E 140°49'0 0.0
2015-May-19 13:23N 35°60' E 140°49'0 0.0
2015-May-19 12:23N 35°60' E 140°49'  
Track history (hours):
 
Tides and Currents Weather Stations Pressure Air Temp Water Temp Dewpoint Dewpoint Depression Visibility Wind Speed Wind Dir Waves Ship Positions

Asian Infinity

Last reported at 2015-May-29 01:30 UTC. Time now 2015-May-29 02:15 UTC.
Position N 34°42' E 135°15'.

Length 104 m; draft 7 m.

Type: Cargo ship. MMSI: 351868000.

Date/timePositionNaut miles runAvg speedWind from/ knotsBaromVisibWave heightAir tempDewpointWater temp
2015-May-29 01:30N 34°42' E 135°15'0 0.0
2015-May-29 00:30N 34°42' E 135°15'0 0.0
2015-May-28 23:30N 34°42' E 135°15'0 0.0
2015-May-28 22:30N 34°42' E 135°15'0 0.0
2015-May-28 21:30N 34°42' E 135°15'0 0.0
2015-May-28 20:30N 34°42' E 135°15'0 0.0
2015-May-28 19:30N 34°42' E 135°15'0 0.0
2015-May-28 18:30N 34°42' E 135°15'0 0.0
2015-May-28 17:30N 34°42' E 135°15'0 0.0
2015-May-28 16:30N 34°42' E 135°15'0 0.0
2015-May-28 15:30N 34°42' E 135°15'0 0.0
2015-May-28 14:30N 34°42' E 135°15'0 0.0
2015-May-28 13:30N 34°42' E 135°15'0 0.0
2015-May-28 12:30N 34°42' E 135°15'0 0.0
2015-May-28 11:30N 34°42' E 135°15'0 0.0
2015-May-28 10:30N 34°42' E 135°15'0 0.0
2015-May-28 09:30N 34°42' E 135°15'0 0.0
2015-May-28 08:30N 34°42' E 135°15'0 0.0
2015-May-28 07:30N 34°42' E 135°15'0 0.0
2015-May-28 06:24N 34°42' E 135°15'0 0.0
2015-May-28 05:30N 34°42' E 135°15'0 0.0
2015-May-28 04:30N 34°42' E 135°15'0 0.0
2015-May-28 03:30N 34°42' E 135°15'0 0.0
2015-May-28 02:24N 34°42' E 135°15'0 0.0
2015-May-28 01:30N 34°42' E 135°15'0 0.0
2015-May-28 00:30N 34°42' E 135°15'0 0.0
2015-May-27 23:30N 34°42' E 135°15'0 0.0
2015-May-27 22:30N 34°42' E 135°15'0 0.0
2015-May-27 21:30N 34°42' E 135°15'0 0.0
2015-May-27 20:24N 34°42' E 135°15'0 0.0
2015-May-27 19:30N 34°42' E 135°15'0 0.0
2015-May-27 18:30N 34°42' E 135°15'0 0.0
2015-May-27 17:30N 34°42' E 135°15'0 0.0
2015-May-27 16:24N 34°42' E 135°15'0 0.0
2015-May-27 15:30N 34°42' E 135°15'0 0.0
2015-May-27 14:30N 34°42' E 135°15'0 0.0
2015-May-27 13:30N 34°42' E 135°15'0 0.0
2015-May-27 12:30N 34°42' E 135°15'0 0.0
2015-May-27 11:24N 34°42' E 135°15'0 0.0
2015-May-27 10:24N 34°42' E 135°15'0 0.0
2015-May-27 09:30N 34°42' E 135°15'0 0.0
2015-May-27 08:18N 34°42' E 135°15'0 0.0
2015-May-27 07:30N 34°42' E 135°15'0 0.0
2015-May-27 06:30N 34°42' E 135°15'0 0.0
2015-May-27 05:24N 34°42' E 135°15'0 0.0
2015-May-27 04:33N 34°42' E 135°15'0 0.0
2015-May-27 03:33N 34°42' E 135°15'0 0.0
2015-May-27 02:33N 34°42' E 135°15'0 0.0
2015-May-27 01:33N 34°42' E 135°15'0 0.0
2015-May-27 00:33N 34°42' E 135°15'0 0.0
2015-May-26 23:33N 34°42' E 135°15'0 0.1
2015-May-26 22:33N 34°42' E 135°15'5 5.1
2015-May-26 21:33N 34°37' E 135°16'9 8.8
2015-May-26 20:33N 34°29' E 135°11'1010.1
2015-May-26 19:33N 34°22' E 135°02'1110.8
2015-May-26 18:33N 34°12' E 134°59'1111.0
2015-May-26 17:32N 34°00' E 134°60'227 7.8
2015-May-25 12:27N 34°57' E 139°27'17 9.2
2015-May-25 10:33N 35°08' E 139°44'9 8.8
2015-May-25 09:33N 35°16' E 139°45'9 8.9
2015-May-25 08:33N 35°25' E 139°43'3 2.9
2015-May-25 07:32N 35°27' E 139°40'0 0.0
2015-May-25 06:26N 35°27' E 139°40'0 0.0
2015-May-25 05:32N 35°27' E 139°40'0 0.0
2015-May-25 04:32N 35°27' E 139°40'0 0.0
2015-May-25 03:32N 35°27' E 139°40'0 0.0
2015-May-25 02:32N 35°27' E 139°40'0 0.0
2015-May-25 01:32N 35°27' E 139°40'0 0.0
2015-May-25 00:32N 35°27' E 139°40'0 0.0
2015-May-24 23:32N 35°27' E 139°40'0 0.0
2015-May-24 22:32N 35°27' E 139°40'0 0.0
2015-May-24 21:32N 35°27' E 139°40'0 0.0
2015-May-24 20:32N 35°27' E 139°40'0 0.0
2015-May-24 19:32N 35°27' E 139°40'0 0.0
2015-May-24 18:32N 35°27' E 139°40'0 0.0
2015-May-24 17:32N 35°27' E 139°40'0 0.0
2015-May-24 16:32N 35°27' E 139°40'0 0.0
2015-May-24 15:32N 35°27' E 139°40'0 0.0
2015-May-24 14:32N 35°27' E 139°40'0 0.0
2015-May-24 13:32N 35°27' E 139°40'0 0.0
2015-May-24 12:32N 35°27' E 139°40'0 0.0
2015-May-24 11:32N 35°27' E 139°40'0 0.0
2015-May-24 10:32N 35°27' E 139°40'0 0.0
2015-May-24 09:32N 35°27' E 139°40'0 0.0
2015-May-24 08:32N 35°27' E 139°40'0 0.0
2015-May-24 07:32N 35°27' E 139°40'0 0.0
2015-May-24 06:32N 35°27' E 139°40'0 0.0
2015-May-24 05:32N 35°27' E 139°40'0 0.0
2015-May-24 04:32N 35°27' E 139°40'0 0.0
2015-May-24 03:32N 35°27' E 139°40'0 0.0
2015-May-24 02:32N 35°27' E 139°40'0 0.0
2015-May-24 01:32N 35°27' E 139°40'2 1.8
2015-May-24 00:33N 35°26' E 139°42'0 0.4
2015-May-23 23:33N 35°26' E 139°42'0 0.2
2015-May-23 22:33N 35°26' E 139°42'4 3.6
2015-May-23 21:33N 35°23' E 139°43'1010.2
2015-May-23 20:33N 35°13' E 139°47'1010.2
2015-May-23 19:33N 35°03' E 139°45'1010.0
2015-May-23 18:33N 34°53' E 139°47'18 8.9
2015-May-23 16:31N 34°57' E 140°08'41 7.5
2015-May-23 11:04N 35°23' E 140°47'3 5.4
2015-May-23 10:27N 35°26' E 140°49'5 5.3
2015-May-23 09:33N 35°30' E 140°52'6 5.4
2015-May-23 08:30N 35°35' E 140°55'10 7.2
2015-May-23 07:06N 35°45' E 140°57'4 7.7
2015-May-23 06:32N 35°50' E 140°57'14 7.0
2015-May-23 04:33N 35°58' E 140°42'3 2.8
2015-May-23 03:31N 35°55' E 140°40'0 0.0
2015-May-23 02:31N 35°55' E 140°40'0 0.0
2015-May-23 01:31N 35°55' E 140°40'0 0.0
2015-May-23 00:19N 35°55' E 140°40'0 0.0
2015-May-22 23:31N 35°55' E 140°40'0 0.0
2015-May-22 22:31N 35°55' E 140°40'0 0.0
2015-May-22 21:31N 35°55' E 140°40'0 0.0
2015-May-22 20:31N 35°55' E 140°40'0 0.0
2015-May-22 18:19N 35°55' E 140°40'0 0.0
2015-May-22 17:07N 35°55' E 140°40'0 0.0
2015-May-22 16:13N 35°55' E 140°40'0 0.0
2015-May-22 15:31N 35°55' E 140°40'0 0.0
2015-May-22 14:31N 35°55' E 140°40'0 0.0
2015-May-22 13:25N 35°55' E 140°40'0 0.0
2015-May-22 11:31N 35°55' E 140°40'0 0.0
2015-May-22 04:13N 35°55' E 140°40'0 0.0
2015-May-22 03:07N 35°55' E 140°40'0 0.0
2015-May-22 02:31N 35°55' E 140°40'0 0.0
2015-May-22 00:25N 35°55' E 140°40'0 0.0
2015-May-21 23:31N 35°55' E 140°40'0 0.0
2015-May-21 22:31N 35°55' E 140°40'0 0.0
2015-May-21 21:25N 35°55' E 140°40'0 0.0
2015-May-21 20:31N 35°55' E 140°40'0 0.0
2015-May-21 19:31N 35°55' E 140°40'0 0.0
2015-May-21 18:22N 35°55' E 140°40'0 0.0
2015-May-21 17:25N 35°55' E 140°40'0 0.0
2015-May-21 16:25N 35°55' E 140°40'0 0.0
2015-May-21 15:28N 35°55' E 140°40'0 0.0
2015-May-21 14:31N 35°55' E 140°40'0 0.0
2015-May-21 13:07N 35°55' E 140°40'0 0.0
2015-May-21 12:19N 35°55' E 140°40'0 0.0
2015-May-21 11:19N 35°55' E 140°40'0 0.0
2015-May-21 09:13N 35°55' E 140°40'2 0.6
2015-May-21 05:32N 35°56' E 140°42'6 6.0
2015-May-21 04:29N 35°60' E 140°49'0 0.0
2015-May-21 00:23N 35°60' E 140°49'0 0.0
2015-May-20 21:05N 35°60' E 140°49'0 0.0
2015-May-20 20:29N 35°60' E 140°49'0 0.0
2015-May-20 19:32N 35°60' E 140°49'0 0.0
2015-May-20 18:29N 35°60' E 140°49'0 0.1
2015-May-20 17:32N 35°60' E 140°49'0 0.1
2015-May-20 16:29N 35°60' E 140°49'0 0.1
2015-May-20 15:32N 36°00' E 140°49'0 0.0
2015-May-20 14:32N 36°00' E 140°49'0 0.1
2015-May-20 13:17N 35°60' E 140°49'0 0.1
2015-May-20 12:26N 35°60' E 140°49'0 0.1
2015-May-20 11:32N 36°00' E 140°49'0 0.1
2015-May-20 10:32N 35°60' E 140°49'0 0.0
2015-May-20 09:26N 35°60' E 140°49'0 0.0
2015-May-20 08:11N 35°60' E 140°49'0 0.0
2015-May-20 07:05N 35°60' E 140°49'0 0.0
2015-May-20 05:29N 35°60' E 140°49'0 0.0
2015-May-20 04:20N 35°60' E 140°49'0 0.0
2015-May-20 02:23N 35°60' E 140°49'0 0.0
2015-May-20 01:11N 35°60' E 140°49'0 0.1
2015-May-20 00:32N 35°60' E 140°49'0 0.0
2015-May-19 23:32N 35°60' E 140°49'0 0.0
2015-May-19 22:29N 35°60' E 140°49'0 0.1
2015-May-19 20:29N 35°60' E 140°49'0 0.0
2015-May-19 19:23N 35°60' E 140°49'0 0.0
2015-May-19 18:26N 35°60' E 140°49'0 0.0
2015-May-19 17:32N 35°60' E 140°49'0 0.0
2015-May-19 16:23N 35°60' E 140°49'0 0.0
2015-May-19 14:05N 35°60' E 140°49'0 0.0
2015-May-19 13:23N 35°60' E 140°49'0 0.0
2015-May-19 12:23N 35°60' E 140°49'  

Dump ship's entire track history